createdAt,value
2018-12-26T00:00:36.500Z,99.90
2018-12-26T00:03:06.226Z,99.90
2018-12-26T00:05:35.927Z,99.90
2018-12-26T00:08:05.847Z,99.90
2018-12-26T00:10:35.708Z,99.90
2018-12-26T00:13:05.686Z,99.90
2018-12-26T00:15:35.693Z,99.90
2018-12-26T00:18:05.586Z,99.90
2018-12-26T00:20:35.638Z,99.90
2018-12-26T00:23:05.376Z,99.90
2018-12-26T00:25:35.194Z,99.90
2018-12-26T00:28:05.190Z,99.90
2018-12-26T00:30:34.984Z,99.90
2018-12-26T00:33:04.769Z,99.90
2018-12-26T00:35:34.692Z,99.90
2018-12-26T00:38:04.525Z,99.90
2018-12-26T00:40:34.230Z,99.90
2018-12-26T00:43:04.241Z,99.90
2018-12-26T00:45:34.265Z,99.90
2018-12-26T00:48:04.061Z,99.90
2018-12-26T00:50:34.051Z,99.90
2018-12-26T00:53:03.716Z,99.90
2018-12-26T00:55:34.358Z,99.90
2018-12-26T00:58:04.089Z,99.90
2018-12-26T01:00:34.223Z,99.90
2018-12-26T01:03:04.133Z,99.90
2018-12-26T01:05:34.393Z,99.90
2018-12-26T01:08:07.014Z,99.90
2018-12-26T01:10:37.239Z,99.90
2018-12-26T01:13:07.486Z,99.90
2018-12-26T01:15:37.689Z,99.90
2018-12-26T01:18:07.533Z,99.90
2018-12-26T01:20:37.486Z,99.90
2018-12-26T01:23:07.333Z,99.90
2018-12-26T01:25:37.212Z,99.90
2018-12-26T01:28:07.414Z,99.90
2018-12-26T01:30:37.734Z,99.90
2018-12-26T01:33:07.936Z,99.90
2018-12-26T01:35:37.926Z,99.90
2018-12-26T01:38:07.929Z,99.90
2018-12-26T01:40:37.769Z,99.90
2018-12-26T01:43:07.610Z,99.90
2018-12-26T01:45:37.612Z,99.90
2018-12-26T01:48:07.733Z,99.90
2018-12-26T01:50:39.345Z,99.90
2018-12-26T01:53:09.490Z,99.90
2018-12-26T01:55:39.496Z,99.90
2018-12-26T01:58:10.893Z,99.90
2018-12-26T02:00:40.674Z,99.90
2018-12-26T02:03:10.358Z,99.90
2018-12-26T02:05:40.194Z,99.90
2018-12-26T02:08:09.813Z,99.90
2018-12-26T02:10:39.653Z,99.90
2018-12-26T02:13:09.540Z,99.90
2018-12-26T02:15:39.077Z,99.90
2018-12-26T02:18:08.986Z,99.90
2018-12-26T02:20:39.033Z,99.90
2018-12-26T02:23:08.733Z,99.90
2018-12-26T02:25:38.598Z,99.90
2018-12-26T02:28:08.455Z,99.90
2018-12-26T02:30:38.215Z,99.90
2018-12-26T02:33:08.090Z,99.90
2018-12-26T02:35:37.870Z,99.90
2018-12-26T02:38:07.755Z,99.90
2018-12-26T02:40:37.698Z,99.90
2018-12-26T02:43:07.710Z,99.90
2018-12-26T02:45:37.539Z,99.90
2018-12-26T02:48:07.354Z,99.90
2018-12-26T02:50:37.223Z,99.90
2018-12-26T02:53:07.210Z,99.90
2018-12-26T02:55:37.413Z,99.90
2018-12-26T02:58:07.194Z,99.90
2018-12-26T03:00:37.066Z,99.90
2018-12-26T03:03:06.881Z,99.90
2018-12-26T03:05:36.738Z,99.90
2018-12-26T03:08:06.610Z,99.90
2018-12-26T03:10:36.355Z,99.90
2018-12-26T03:13:06.477Z,99.90
2018-12-26T03:15:36.420Z,99.90
2018-12-26T03:18:06.245Z,99.90
2018-12-26T03:20:36.239Z,99.90
2018-12-26T03:23:05.899Z,99.90
2018-12-26T03:25:35.798Z,99.90
2018-12-26T03:28:05.509Z,99.90
2018-12-26T03:30:35.291Z,99.90
2018-12-26T03:33:05.020Z,99.90
2018-12-26T03:35:34.960Z,99.90
2018-12-26T03:38:05.181Z,99.90
2018-12-26T03:40:34.867Z,99.90
2018-12-26T03:43:04.658Z,99.90
2018-12-26T03:45:34.506Z,99.90
2018-12-26T03:48:04.725Z,99.90
2018-12-26T03:50:34.485Z,99.90
2018-12-26T03:53:04.479Z,99.90
2018-12-26T03:55:34.627Z,99.90
2018-12-26T03:58:04.459Z,99.90
2018-12-26T04:00:34.471Z,99.90
2018-12-26T04:03:04.233Z,99.90
2018-12-26T04:05:34.094Z,99.90
2018-12-26T04:08:03.841Z,99.90
2018-12-26T04:10:33.829Z,99.90
2018-12-26T04:13:03.514Z,99.90
2018-12-26T04:15:33.449Z,99.90
2018-12-26T04:18:03.178Z,99.90
2018-12-26T04:20:33.174Z,99.90
2018-12-26T04:23:03.065Z,99.90
2018-12-26T04:25:33.334Z,99.90
2018-12-26T04:28:03.206Z,99.90
2018-12-26T04:30:32.872Z,99.90
2018-12-26T04:33:02.702Z,99.90
2018-12-26T04:35:33.045Z,99.90
2018-12-26T04:38:02.904Z,99.90
2018-12-26T04:40:32.610Z,99.90
2018-12-26T04:43:02.577Z,99.90
2018-12-26T04:45:32.586Z,99.90
2018-12-26T04:48:02.350Z,99.90
2018-12-26T04:50:32.616Z,99.90
2018-12-26T04:53:02.440Z,99.90
2018-12-26T04:55:32.525Z,99.90
2018-12-26T04:58:02.452Z,99.90
2018-12-26T05:00:32.162Z,99.90
2018-12-26T05:03:02.031Z,99.90
2018-12-26T05:05:31.699Z,99.90
2018-12-26T05:08:01.549Z,99.90
2018-12-26T05:10:31.344Z,99.90
2018-12-26T05:13:01.233Z,99.90
2018-12-26T05:15:32.096Z,99.90
2018-12-26T05:18:01.835Z,99.90
2018-12-26T05:20:31.521Z,99.90
2018-12-26T05:23:01.260Z,99.90
2018-12-26T05:25:31.152Z,99.90
2018-12-26T05:28:00.969Z,99.90
2018-12-26T05:30:30.625Z,99.90
2018-12-26T05:33:00.392Z,99.90
2018-12-26T05:35:30.059Z,99.90
2018-12-26T05:37:59.887Z,99.90
2018-12-26T05:40:29.533Z,99.90
2018-12-26T05:42:59.269Z,99.90
2018-12-26T05:45:29.115Z,99.90
2018-12-26T05:47:58.862Z,99.90
2018-12-26T05:50:28.721Z,99.90
2018-12-26T05:52:58.609Z,99.90
2018-12-26T05:55:28.271Z,99.90
2018-12-26T05:57:58.183Z,99.90
2018-12-26T06:00:28.020Z,99.90
2018-12-26T06:02:57.893Z,99.90
2018-12-26T06:05:27.730Z,99.90
2018-12-26T06:07:57.393Z,99.90
2018-12-26T06:10:27.074Z,99.90
2018-12-26T06:12:56.721Z,99.90
2018-12-26T06:15:26.469Z,99.90
2018-12-26T06:17:56.182Z,99.90
2018-12-26T06:20:25.872Z,99.90
2018-12-26T06:22:55.674Z,99.90
2018-12-26T06:25:25.513Z,99.90
2018-12-26T06:27:55.218Z,99.90
2018-12-26T06:30:24.901Z,99.90
2018-12-26T06:32:54.973Z,99.90
2018-12-26T06:35:25.140Z,99.90
2018-12-26T06:37:55.162Z,99.90
2018-12-26T06:40:25.709Z,99.90
2018-12-26T06:42:55.635Z,99.90
2018-12-26T06:45:25.586Z,99.90
2018-12-26T06:47:55.749Z,99.90
2018-12-26T06:50:25.590Z,99.90
2018-12-26T06:52:55.487Z,99.90
2018-12-26T06:55:25.356Z,99.90
2018-12-26T06:58:00.069Z,99.90
2018-12-26T07:00:26.813Z,99.90
2018-12-26T07:02:56.489Z,99.90
2018-12-26T07:05:26.373Z,99.90
2018-12-26T07:07:56.070Z,99.90
2018-12-26T07:10:25.905Z,99.90
2018-12-26T07:12:55.581Z,99.90
2018-12-26T07:15:25.389Z,99.90
2018-12-26T07:17:55.231Z,99.90
2018-12-26T07:20:24.978Z,99.90
2018-12-26T07:22:56.682Z,99.90
2018-12-26T07:25:26.595Z,99.90
2018-12-26T07:27:56.481Z,99.90
2018-12-26T07:30:26.549Z,99.90
2018-12-26T07:32:56.536Z,99.90
2018-12-26T07:35:26.350Z,99.90
2018-12-26T07:37:56.717Z,99.90
2018-12-26T07:40:26.792Z,99.90
2018-12-26T07:42:56.826Z,99.90
2018-12-26T07:45:26.789Z,99.90
2018-12-26T07:47:58.518Z,99.90
2018-12-26T07:50:28.668Z,99.90
2018-12-26T07:52:58.545Z,99.90
2018-12-26T07:55:28.218Z,99.90
2018-12-26T07:57:58.089Z,99.90
2018-12-26T08:00:27.721Z,99.90
2018-12-26T08:02:57.475Z,99.90
2018-12-26T08:05:27.377Z,99.90
2018-12-26T08:07:57.001Z,99.90
2018-12-26T08:10:26.776Z,99.90
2018-12-26T08:12:56.493Z,99.90
2018-12-26T08:15:26.133Z,99.90
2018-12-26T08:17:56.033Z,99.90
2018-12-26T08:20:25.819Z,99.90
2018-12-26T08:22:55.773Z,99.90
2018-12-26T08:25:25.568Z,99.90
2018-12-26T08:27:55.464Z,99.90
2018-12-26T08:30:25.193Z,99.90
2018-12-26T08:32:54.918Z,99.90
2018-12-26T08:35:24.591Z,99.90
2018-12-26T08:37:54.293Z,99.90
2018-12-26T08:40:24.032Z,99.90
2018-12-26T08:42:54.165Z,99.90
2018-12-26T08:45:23.936Z,99.90
2018-12-26T08:47:53.912Z,99.90
2018-12-26T08:50:24.159Z,99.90
2018-12-26T08:52:54.909Z,99.90
2018-12-26T08:55:24.677Z,99.90
2018-12-26T08:57:54.449Z,99.90
2018-12-26T09:00:24.258Z,99.90
2018-12-26T09:02:54.002Z,99.90
2018-12-26T09:05:23.873Z,99.90
2018-12-26T09:07:53.925Z,99.90
2018-12-26T09:10:23.681Z,99.90
2018-12-26T09:12:53.459Z,99.90
2018-12-26T09:15:23.192Z,99.90
2018-12-26T09:17:53.258Z,99.90
2018-12-26T09:20:23.042Z,99.90
2018-12-26T09:22:52.809Z,99.90
2018-12-26T09:25:22.926Z,99.90
2018-12-26T09:27:54.054Z,99.90
2018-12-26T09:30:23.881Z,99.90
2018-12-26T09:32:55.754Z,99.90
2018-12-26T09:35:26.478Z,99.90
2018-12-26T09:37:56.397Z,99.90
2018-12-26T09:40:26.169Z,99.90
2018-12-26T09:42:57.907Z,99.90
2018-12-26T09:45:27.365Z,99.90
2018-12-26T09:47:57.013Z,99.90
2018-12-26T09:50:26.735Z,99.90
2018-12-26T09:52:56.404Z,99.90
2018-12-26T09:55:26.351Z,99.90
2018-12-26T09:57:56.029Z,99.90
2018-12-26T10:00:25.892Z,99.90
2018-12-26T10:02:55.573Z,99.90
2018-12-26T10:05:25.353Z,99.90
2018-12-26T10:07:55.316Z,99.90
2018-12-26T10:10:25.448Z,99.90
2018-12-26T10:12:55.852Z,99.90
2018-12-26T10:15:26.157Z,99.90
2018-12-26T10:17:56.077Z,99.90
2018-12-26T10:20:26.041Z,99.90
2018-12-26T10:22:55.933Z,99.90
2018-12-26T10:25:26.006Z,99.90
2018-12-26T10:27:55.845Z,99.90
2018-12-26T10:30:25.564Z,99.90
2018-12-26T10:32:55.480Z,99.90
2018-12-26T10:35:25.194Z,99.90
2018-12-26T10:37:54.960Z,99.90
2018-12-26T10:40:25.361Z,99.90
2018-12-26T10:42:55.023Z,99.20
2018-12-26T10:45:24.761Z,98.30
2018-12-26T10:47:54.522Z,97.60
2018-12-26T10:50:24.371Z,96.20
2018-12-26T10:52:54.250Z,95.20
2018-12-26T10:55:24.047Z,93.50
2018-12-26T10:57:53.711Z,92.20
2018-12-26T11:00:23.414Z,90.40
2018-12-26T11:02:53.270Z,87.60
2018-12-26T11:05:29.483Z,83.30
2018-12-26T11:07:54.677Z,80.40
2018-12-26T11:10:24.429Z,73.90
2018-12-26T11:12:54.102Z,69.20
2018-12-26T11:15:23.963Z,61.70
2018-12-26T11:17:54.825Z,60.40
2018-12-26T11:20:24.760Z,57.00
2018-12-26T11:22:54.785Z,56.80
2018-12-26T11:25:24.563Z,56.00
2018-12-26T11:27:54.325Z,53.70
2018-12-26T11:30:24.081Z,50.20
2018-12-26T11:32:53.766Z,49.70
2018-12-26T11:35:23.956Z,51.60
2018-12-26T11:37:53.730Z,49.60
2018-12-26T11:40:23.514Z,47.70
2018-12-26T11:42:53.445Z,45.90
2018-12-26T11:45:23.358Z,43.90
2018-12-26T11:47:53.182Z,45.60
2018-12-26T11:50:23.157Z,45.70
2018-12-26T11:52:52.838Z,44.50
2018-12-26T11:55:22.833Z,41.70
2018-12-26T11:57:52.572Z,40.10
2018-12-26T12:00:22.340Z,38.10
2018-12-26T12:02:53.452Z,36.90
2018-12-26T12:05:23.521Z,35.30
2018-12-26T12:07:54.525Z,35.10
2018-12-26T12:10:24.468Z,34.50
2018-12-26T12:12:54.381Z,34.50
2018-12-26T12:15:24.153Z,33.70
2018-12-26T12:17:53.859Z,32.30
2018-12-26T12:20:23.699Z,31.40
2018-12-26T12:22:53.361Z,30.60
2018-12-26T12:25:23.039Z,29.80
2018-12-26T12:27:52.671Z,30.00
2018-12-26T12:30:22.500Z,29.50
2018-12-26T12:32:52.550Z,29.30
2018-12-26T12:35:22.785Z,29.60
2018-12-26T12:37:52.704Z,29.40
2018-12-26T12:40:23.181Z,29.40
2018-12-26T12:42:53.201Z,29.80
2018-12-26T12:45:23.401Z,30.00
2018-12-26T12:47:53.520Z,30.30
2018-12-26T12:50:23.635Z,30.10
2018-12-26T12:52:53.428Z,30.50
2018-12-26T12:55:23.256Z,30.60
2018-12-26T12:57:52.984Z,30.50
2018-12-26T13:00:22.709Z,30.10
2018-12-26T13:03:00.106Z,30.30
2018-12-26T13:05:24.217Z,30.40
2018-12-26T13:07:54.029Z,30.30
2018-12-26T13:10:24.358Z,30.30
2018-12-26T13:12:54.302Z,30.50
2018-12-26T13:15:25.008Z,30.70
2018-12-26T13:17:55.002Z,30.60
2018-12-26T13:20:24.990Z,31.20
2018-12-26T13:22:55.960Z,31.70
2018-12-26T13:25:25.611Z,33.30
2018-12-26T13:27:55.413Z,34.40
2018-12-26T13:30:25.477Z,35.70
2018-12-26T13:32:55.186Z,36.70
2018-12-26T13:35:24.926Z,37.00
2018-12-26T13:37:54.641Z,35.40
2018-12-26T13:40:24.479Z,35.40
2018-12-26T13:42:54.145Z,36.40
2018-12-26T13:45:24.104Z,40.30
2018-12-26T13:47:53.989Z,45.10
2018-12-26T13:50:23.993Z,50.00
2018-12-26T13:52:53.797Z,55.40
2018-12-26T13:55:23.771Z,56.50
2018-12-26T13:57:53.554Z,57.70
2018-12-26T14:00:23.165Z,62.50
2018-12-26T14:02:53.076Z,63.90
2018-12-26T14:05:22.989Z,69.40
2018-12-26T14:07:52.838Z,73.30
2018-12-26T14:10:22.833Z,76.00
2018-12-26T14:12:52.746Z,77.50
2018-12-26T14:15:22.433Z,79.60
2018-12-26T14:17:52.387Z,80.30
2018-12-26T14:20:22.197Z,80.40
2018-12-26T14:22:52.060Z,82.10
2018-12-26T14:25:21.745Z,82.80
2018-12-26T14:27:51.761Z,82.10
2018-12-26T14:30:21.659Z,82.50
2018-12-26T14:32:51.819Z,82.80
2018-12-26T14:35:21.860Z,82.70
2018-12-26T14:37:51.636Z,82.30
2018-12-26T14:40:21.665Z,83.40
2018-12-26T14:42:51.494Z,83.60
2018-12-26T14:45:21.113Z,85.90
2018-12-26T14:47:50.809Z,85.30
2018-12-26T14:50:20.735Z,86.20
2018-12-26T14:52:50.521Z,87.50
2018-12-26T14:55:20.418Z,88.40
2018-12-26T14:57:50.300Z,89.10
2018-12-26T15:00:20.338Z,89.70
2018-12-26T15:02:50.417Z,90.60
2018-12-26T15:05:20.358Z,91.30
2018-12-26T15:07:50.017Z,91.80
2018-12-26T15:10:19.820Z,92.10
2018-12-26T15:12:49.688Z,92.60
2018-12-26T15:15:19.409Z,93.00
2018-12-26T15:17:49.118Z,93.30
2018-12-26T15:20:18.996Z,93.40
2018-12-26T15:22:48.706Z,93.70
2018-12-26T15:25:18.399Z,94.50
2018-12-26T15:27:48.090Z,94.60
2018-12-26T15:30:17.899Z,95.40
2018-12-26T15:32:47.569Z,95.50
2018-12-26T15:35:17.249Z,95.90
2018-12-26T15:37:47.126Z,96.30
2018-12-26T15:40:16.955Z,96.30
2018-12-26T15:42:46.638Z,96.40
2018-12-26T15:45:16.504Z,96.80
2018-12-26T15:47:46.300Z,97.00
2018-12-26T15:50:16.031Z,97.30
2018-12-26T15:52:45.819Z,97.80
2018-12-26T15:55:15.687Z,98.20
2018-12-26T15:57:45.685Z,98.40
2018-12-26T16:00:16.009Z,98.70
2018-12-26T16:02:45.701Z,98.90
2018-12-26T16:05:15.588Z,99.40
2018-12-26T16:07:46.461Z,99.80
2018-12-26T16:10:16.229Z,99.90
2018-12-26T16:12:46.121Z,99.90
2018-12-26T16:15:15.954Z,99.90
2018-12-26T16:17:45.848Z,99.90
2018-12-26T16:20:16.191Z,99.90
2018-12-26T16:22:45.913Z,99.90
2018-12-26T16:25:15.891Z,99.90
2018-12-26T16:27:45.593Z,99.90
2018-12-26T16:30:15.523Z,99.90
2018-12-26T16:32:45.354Z,99.90
2018-12-26T16:35:15.757Z,99.90
2018-12-26T16:37:45.600Z,99.90
2018-12-26T16:40:15.373Z,99.90
2018-12-26T16:42:45.168Z,99.90
2018-12-26T16:45:14.961Z,99.90
2018-12-26T16:47:44.635Z,99.90
2018-12-26T16:50:14.900Z,99.90
2018-12-26T16:52:44.585Z,99.90
2018-12-26T16:55:14.295Z,99.90
2018-12-26T16:57:44.214Z,99.90
2018-12-26T17:00:15.173Z,99.90
2018-12-26T17:02:44.841Z,99.90
2018-12-26T17:05:14.766Z,99.90
2018-12-26T17:07:44.789Z,99.90
2018-12-26T17:10:18.442Z,99.90
2018-12-26T17:12:48.364Z,99.90
2018-12-26T17:15:18.245Z,99.90
2018-12-26T17:17:47.937Z,99.90
2018-12-26T17:20:17.682Z,99.90
2018-12-26T17:22:47.681Z,99.90
2018-12-26T17:25:17.524Z,99.90
2018-12-26T17:27:47.501Z,99.90
2018-12-26T17:30:17.281Z,99.90
2018-12-26T17:32:47.104Z,99.90
2018-12-26T17:35:16.900Z,99.90
2018-12-26T17:37:46.671Z,99.90
2018-12-26T17:40:16.554Z,99.90
2018-12-26T17:42:46.379Z,99.90
2018-12-26T17:45:24.457Z,99.90
2018-12-26T17:47:55.984Z,99.90
2018-12-26T17:50:50.130Z,99.90
2018-12-26T17:53:24.981Z,99.90
2018-12-26T17:55:59.524Z,99.90
2018-12-26T17:58:31.637Z,99.90
2018-12-26T18:01:33.667Z,99.90
2018-12-26T18:04:03.344Z,99.90
2018-12-26T18:06:33.374Z,99.90
2018-12-26T18:09:06.067Z,99.90
2018-12-26T18:11:35.970Z,99.90
2018-12-26T18:14:05.862Z,99.90
2018-12-26T18:16:35.731Z,99.90
2018-12-26T18:19:05.703Z,99.90
2018-12-26T18:21:35.726Z,99.90
2018-12-26T18:24:05.911Z,99.90
2018-12-26T18:26:35.825Z,99.90
2018-12-26T18:29:05.845Z,99.90
2018-12-26T18:31:36.849Z,99.90
2018-12-26T18:34:07.425Z,99.90
2018-12-26T18:36:37.630Z,99.90
2018-12-26T18:39:08.910Z,99.90
2018-12-26T18:41:39.111Z,99.90
2018-12-26T18:44:08.921Z,99.90
2018-12-26T18:46:38.954Z,99.90
2018-12-26T18:49:08.953Z,99.90
2018-12-26T18:51:38.859Z,99.90
2018-12-26T18:54:08.953Z,99.90
2018-12-26T18:56:39.062Z,99.90
2018-12-26T18:59:09.958Z,99.90
2018-12-26T19:01:40.040Z,99.90
2018-12-26T19:04:10.259Z,99.90
2018-12-26T19:06:40.353Z,99.90
2018-12-26T19:09:10.628Z,99.90
2018-12-26T19:11:40.775Z,99.90
2018-12-26T19:14:10.879Z,99.90
2018-12-26T19:16:41.518Z,99.90
2018-12-26T19:19:11.573Z,99.90
2018-12-26T19:21:42.135Z,99.90
2018-12-26T19:24:12.367Z,99.90
2018-12-26T19:26:42.760Z,99.90
2018-12-26T19:29:12.849Z,99.90
2018-12-26T19:31:43.029Z,99.90
2018-12-26T19:34:13.085Z,99.90
2018-12-26T19:36:43.161Z,99.90
2018-12-26T19:39:13.183Z,99.90
2018-12-26T19:41:43.413Z,99.90
2018-12-26T19:44:13.684Z,99.90
2018-12-26T19:46:43.765Z,99.90
2018-12-26T19:49:13.880Z,99.90
2018-12-26T19:51:43.968Z,99.90
2018-12-26T19:54:14.158Z,99.90
2018-12-26T19:56:44.616Z,99.90
2018-12-26T19:59:14.765Z,99.90
2018-12-26T20:01:48.292Z,99.90
2018-12-26T20:04:16.488Z,99.90
2018-12-26T20:06:46.665Z,99.90
2018-12-26T20:09:16.800Z,99.90
2018-12-26T20:11:47.729Z,99.90
2018-12-26T20:14:17.929Z,99.90
2018-12-26T20:16:48.007Z,99.90
2018-12-26T20:19:18.117Z,99.90
2018-12-26T20:21:48.224Z,99.90
2018-12-26T20:24:18.485Z,99.90
2018-12-26T20:26:48.724Z,99.90
2018-12-26T20:29:18.686Z,99.90
2018-12-26T20:31:56.691Z,99.90
2018-12-26T20:34:20.617Z,99.90
2018-12-26T20:36:50.592Z,99.90
2018-12-26T20:39:21.196Z,99.90
2018-12-26T20:41:51.205Z,99.90
2018-12-26T20:44:21.461Z,99.90
2018-12-26T20:46:51.569Z,99.90
2018-12-26T20:49:21.662Z,99.90
2018-12-26T20:51:51.837Z,99.90
2018-12-26T20:54:21.953Z,99.90
2018-12-26T20:56:52.109Z,99.90
2018-12-26T20:59:22.174Z,99.90
2018-12-26T21:01:52.460Z,99.90
2018-12-26T21:04:23.397Z,99.90
2018-12-26T21:06:53.565Z,99.90
2018-12-26T21:09:23.650Z,99.90
2018-12-26T21:11:54.013Z,99.90
2018-12-26T21:14:24.338Z,99.90
2018-12-26T21:16:55.404Z,99.90
2018-12-26T21:19:25.651Z,99.90
2018-12-26T21:21:55.655Z,99.90
2018-12-26T21:24:25.893Z,99.90
2018-12-26T21:26:56.215Z,99.90
2018-12-26T21:29:26.580Z,99.90
2018-12-26T21:31:57.040Z,99.90
2018-12-26T21:34:27.557Z,99.90
2018-12-26T21:36:58.032Z,99.90
2018-12-26T21:39:28.228Z,99.90
2018-12-26T21:41:58.625Z,99.90
2018-12-26T21:44:29.072Z,99.90
2018-12-26T21:46:59.192Z,99.90
2018-12-26T21:49:29.254Z,99.90
2018-12-26T21:51:59.373Z,99.90
2018-12-26T21:54:29.310Z,99.90
2018-12-26T21:56:59.280Z,99.90
2018-12-26T21:59:30.810Z,99.90
2018-12-26T22:02:01.557Z,99.90
2018-12-26T22:04:31.770Z,99.90
2018-12-26T22:07:02.176Z,99.90
2018-12-26T22:09:32.527Z,99.90
2018-12-26T22:12:02.917Z,99.90
2018-12-26T22:14:33.466Z,99.90
2018-12-26T22:17:03.728Z,99.90
2018-12-26T22:19:34.076Z,99.90
2018-12-26T22:22:05.133Z,99.90
2018-12-26T22:24:35.080Z,99.90
2018-12-26T22:27:05.130Z,99.90
2018-12-26T22:29:35.246Z,99.90
2018-12-26T22:32:05.093Z,99.90
2018-12-26T22:34:34.887Z,99.90
2018-12-26T22:37:04.894Z,99.90
2018-12-26T22:39:34.601Z,99.90
2018-12-26T22:42:04.478Z,99.90
2018-12-26T22:44:34.408Z,99.90
2018-12-26T22:47:04.402Z,99.90
2018-12-26T22:49:34.200Z,99.90
2018-12-26T22:52:04.113Z,99.90
2018-12-26T22:54:33.856Z,99.90
2018-12-26T22:57:03.515Z,99.90
2018-12-26T22:59:33.197Z,99.90
2018-12-26T23:02:02.953Z,99.90
2018-12-26T23:04:32.758Z,99.90
2018-12-26T23:07:02.593Z,99.90
2018-12-26T23:09:32.944Z,99.90
2018-12-26T23:12:03.084Z,99.90
2018-12-26T23:14:32.829Z,99.90
2018-12-26T23:17:02.569Z,99.90
2018-12-26T23:19:32.237Z,99.90
2018-12-26T23:22:02.210Z,99.90
2018-12-26T23:24:31.971Z,99.90
2018-12-26T23:27:01.809Z,99.90
2018-12-26T23:29:31.465Z,99.90
2018-12-26T23:32:01.289Z,99.90
2018-12-26T23:34:31.273Z,99.90
2018-12-26T23:37:01.171Z,99.90
2018-12-26T23:39:31.097Z,99.90
2018-12-26T23:42:01.098Z,99.90
2018-12-26T23:44:31.398Z,99.90
2018-12-26T23:47:01.871Z,99.90
2018-12-26T23:49:31.921Z,99.90
2018-12-26T23:52:01.964Z,99.90
2018-12-26T23:54:31.844Z,99.90
2018-12-26T23:57:01.921Z,99.90
2018-12-26T23:59:33.352Z,99.90
